Time;durP1;ratioP1;P1;durP2;ratioP2;P2;SDS_P1;SDS_P2;PMS_P1;PMS_P2;Temp;Humidity;BMP_temperature;BMP_pressure;BME280_temperature;BME280_humidity;BME280_pressure;Samples;Min_cycle;Max_cycle;Signal;HPM_P1;HPM_P2
2022/05/14 00:01:19;;;;;;;9.82;6.35;;;14.50;80.90;;;13.23;90.07;96473.75;4859715;28;20459;-66
2022/05/14 00:03:46;;;;;;;8.48;6.05;;;14.40;80.80;;;13.19;89.90;96472.50;4851494;28;20611;-67
2022/05/14 00:06:17;;;;;;;8.07;6.43;;;14.30;80.90;;;13.17;90.50;96482.44;4854444;28;20522;-66
2022/05/14 00:08:44;;;;;;;8.75;6.05;;;14.30;81.00;;;13.12;89.28;96479.53;4847900;28;20405;-67
2022/05/14 00:13:54;;;;;;;6.60;5.80;;;14.30;81.00;;;13.10;90.60;96473.63;4884625;28;20631;-66
2022/05/14 00:16:21;;;;;;;6.63;5.90;;;14.40;80.90;;;13.12;89.47;96482.19;4846751;28;20212;-66
2022/05/14 00:18:47;;;;;;;9.50;6.45;;;14.40;80.90;;;13.11;90.57;96473.44;4880139;28;20396;-66
2022/05/14 00:21:14;;;;;;;6.97;6.10;;;14.40;80.90;;;13.12;89.97;96471.63;4906038;28;20428;-66
2022/05/14 00:23:40;;;;;;;7.78;6.30;;;14.40;80.80;;;13.11;89.92;96475.25;4855991;28;20356;-66
2022/05/14 00:26:06;;;;;;;7.80;5.38;;;14.40;81.00;;;13.11;89.88;96472.63;4867304;28;20300;-67
2022/05/14 00:28:32;;;;;;;8.50;6.93;;;14.30;81.40;;;13.12;90.13;96468.97;4866408;28;20580;-67
2022/05/14 00:30:58;;;;;;;7.72;5.80;;;14.40;81.50;;;13.13;91.12;96471.44;4851064;28;20349;-67
2022/05/14 00:33:24;;;;;;;9.90;6.15;;;14.40;81.40;;;13.12;90.32;96476.91;4852944;28;20647;-66
2022/05/14 00:35:51;;;;;;;7.75;6.35;;;14.40;81.40;;;13.10;90.31;96476.28;4850770;28;20374;-67
2022/05/14 00:38:17;;;;;;;6.75;5.78;;;14.40;81.40;;;13.09;91.38;96467.53;4838487;28;20451;-66
2022/05/14 00:40:54;;;;;;;7.75;6.88;;;14.40;81.40;;;13.06;91.30;96465.28;4886200;28;20361;-67
2022/05/14 00:43:20;;;;;;;10.40;6.28;;;14.30;81.40;;;13.04;91.23;96464.69;4837249;28;20509;-66
2022/05/14 00:45:56;;;;;;;6.85;6.18;;;14.30;81.40;;;13.02;91.35;96468.53;4869518;28;20332;-66
2022/05/14 00:48:23;;;;;;;6.97;6.28;;;14.30;81.40;;;13.01;91.07;96472.19;4881461;28;20787;-66
2022/05/14 00:50:52;;;;;;;10.50;7.00;;;14.30;81.40;;;12.99;91.00;96463.63;4863272;28;20354;-66
2022/05/14 00:53:25;;;;;;;9.73;7.00;;;14.20;81.40;;;12.98;91.22;96472.56;4862116;28;20563;-66
2022/05/14 00:55:54;;;;;;;9.90;7.05;;;14.20;81.40;;;12.97;91.62;96465.66;4868852;28;20716;-66
2022/05/14 00:58:45;;;;;;;8.32;7.25;;;14.30;81.50;;;12.95;91.85;96472.97;4827621;28;20493;-66
2022/05/14 01:01:11;;;;;;;8.85;7.05;;;14.20;81.60;;;12.92;91.46;96465.44;4854843;28;20793;-67
2022/05/14 01:03:37;;;;;;;8.60;7.68;;;14.20;81.50;;;12.91;90.68;96466.44;4897458;28;20453;-66
2022/05/14 01:06:05;;;;;;;9.00;7.75;;;14.10;81.60;;;12.87;91.92;96458.06;4860197;28;20338;-66
2022/05/14 01:08:31;;;;;;;8.27;7.47;;;14.10;81.70;;;12.85;91.39;96447.72;4852663;28;20338;-66
2022/05/14 01:10:57;;;;;;;9.80;7.65;;;14.10;81.60;;;12.81;91.82;96449.13;4870616;28;20539;-66
2022/05/14 01:13:23;;;;;;;10.60;8.15;;;14.10;81.50;;;12.80;91.67;96450.13;4847779;28;20487;-67
2022/05/14 01:15:57;;;;;;;8.20;7.07;;;14.10;81.70;;;12.78;92.10;96452.16;4838420;28;20450;-67
2022/05/14 01:18:24;;;;;;;12.68;8.00;;;14.10;81.60;;;12.75;90.78;96447.25;4834440;28;20700;-67
2022/05/14 01:21:05;;;;;;;9.95;7.05;;;14.00;81.60;;;12.74;91.40;96450.91;4850117;28;20691;-67
2022/05/14 01:26:36;;;;;;;10.32;7.57;;;14.00;81.70;;;12.67;91.29;96452.66;4913338;28;20246;-66
2022/05/14 01:29:09;;;;;;;8.85;7.95;;;14.00;81.70;;;12.67;91.78;96443.94;4917694;28;20038;-66
2022/05/14 01:31:35;;;;;;;9.50;8.02;;;14.00;81.60;;;12.64;91.24;96449.59;4937459;28;20026;-66
2022/05/14 01:34:05;;;;;;;8.40;7.53;;;13.90;81.50;;;12.63;91.26;96447.97;4907717;28;20042;-66
2022/05/14 01:36:33;;;;;;;10.52;8.23;;;13.90;81.50;;;12.61;91.48;96439.44;4933680;28;20408;-67
2022/05/14 01:38:59;;;;;;;10.50;9.40;;;13.90;81.40;;;12.56;91.33;96437.38;4865716;28;20497;-67
2022/05/14 01:41:25;;;;;;;9.70;8.65;;;13.70;81.90;;;12.53;91.33;96443.06;4861072;28;20358;-66
2022/05/14 01:43:51;;;;;;;12.98;8.88;;;13.70;82.00;;;12.51;91.53;96448.53;4875898;28;20313;-66
2022/05/14 01:46:17;;;;;;;10.00;8.70;;;13.80;81.90;;;12.49;91.66;96447.09;4838788;28;20308;-66
2022/05/14 01:48:44;;;;;;;12.60;9.25;;;13.80;81.70;;;12.46;91.39;96452.75;4865738;28;20799;-66
2022/05/14 01:51:10;;;;;;;12.82;8.25;;;13.70;81.60;;;12.42;91.66;96452.28;4838048;28;20305;-66
2022/05/14 01:53:36;;;;;;;9.60;8.55;;;13.70;81.60;;;12.41;91.38;96453.28;4840650;28;20201;-66
2022/05/14 01:56:02;;;;;;;10.40;8.20;;;13.60;81.70;;;12.39;91.16;96449.22;4900791;28;20488;-66
2022/05/14 01:58:37;;;;;;;9.38;8.38;;;13.60;81.60;;;12.38;90.96;96450.22;4834968;28;20268;-66
2022/05/14 02:01:24;;;;;;;9.27;8.30;;;13.60;81.40;;;12.34;91.90;96444.53;4850084;28;20498;-65
2022/05/14 02:04:02;;;;;;;9.07;8.18;;;13.60;81.50;;;12.32;91.95;96451.81;4921598;28;20070;-65
2022/05/14 02:06:28;;;;;;;9.45;8.23;;;13.60;81.50;;;12.30;91.19;96447.75;4905354;28;20350;-66
2022/05/14 02:08:55;;;;;;;10.90;8.70;;;13.60;81.50;;;12.25;91.02;96446.50;4835003;28;20413;-66
2022/05/14 02:11:21;;;;;;;11.10;8.75;;;13.60;81.50;;;12.23;90.95;96445.88;4865079;28;20453;-66
2022/05/14 02:13:48;;;;;;;9.45;8.40;;;13.50;81.50;;;12.20;90.81;96445.41;4868245;28;20444;-66
2022/05/14 02:16:14;;;;;;;10.57;8.45;;;13.50;81.60;;;12.17;91.19;96449.25;4851186;28;20345;-67
2022/05/14 02:18:40;;;;;;;9.60;8.45;;;13.40;81.60;;;12.14;91.20;96448.81;4827217;28;20358;-66
2022/05/14 02:21:07;;;;;;;9.05;7.90;;;13.40;81.50;;;12.10;91.30;96453.66;4868681;28;20440;-67
2022/05/14 02:23:33;;;;;;;12.38;8.80;;;13.40;81.60;;;12.07;91.32;96454.03;4832427;28;20491;-67
2022/05/14 02:25:59;;;;;;;10.85;8.88;;;13.40;81.80;;;12.02;92.36;96448.53;4835642;28;20358;-66
2022/05/14 02:28:25;;;;;;;10.27;8.35;;;13.30;82.00;;;12.02;91.25;96451.16;4841422;28;20927;-67
2022/05/14 02:30:51;;;;;;;8.70;7.90;;;13.40;82.00;;;12.03;92.56;96452.81;4838314;28;20486;-67
2022/05/14 02:33:17;;;;;;;11.63;8.27;;;13.40;82.30;;;12.05;91.91;96449.97;4857355;28;20386;-66
2022/05/14 02:35:43;;;;;;;8.88;7.60;;;13.40;82.30;;;12.04;93.01;96443.88;4866698;28;20332;-66
2022/05/14 02:38:10;;;;;;;9.27;7.90;;;13.40;82.60;;;12.06;92.73;96431.31;4839843;28;20505;-67
2022/05/14 02:40:37;;;;;;;8.60;7.70;;;13.50;82.70;;;12.06;93.60;96428.69;4833989;28;20194;-67
2022/05/14 02:43:03;;;;;;;15.13;8.80;;;13.50;82.80;;;12.09;93.71;96430.13;4841460;28;20374;-66
2022/05/14 02:45:29;;;;;;;9.80;8.52;;;13.50;82.90;;;12.10;94.01;96427.28;4876987;28;20030;-66
2022/05/14 02:47:56;;;;;;;9.43;8.15;;;13.50;83.10;;;12.12;94.07;96430.56;4857768;28;20286;-65
2022/05/14 02:50:22;;;;;;;9.52;8.50;;;13.50;82.90;;;12.10;93.79;96432.56;4887085;28;20192;-66
2022/05/14 02:52:48;;;;;;;13.68;8.75;;;13.40;82.90;;;12.08;93.40;96434.59;4869765;28;20424;-66
2022/05/14 02:55:14;;;;;;;10.30;8.98;;;13.40;83.00;;;12.07;93.74;96435.59;4866628;28;20320;-65
2022/05/14 02:57:40;;;;;;;11.32;8.18;;;13.40;82.70;;;12.08;93.50;96439.03;4848383;28;20594;-65
2022/05/14 03:00:11;;;;;;;9.43;8.18;;;13.40;82.60;;;12.05;93.57;96434.16;4849860;28;20635;-65
2022/05/14 03:02:37;;;;;;;8.90;7.80;;;13.40;82.50;;;12.03;93.45;96431.72;4864476;28;20632;-66
2022/05/14 03:05:04;;;;;;;13.70;8.15;;;13.40;82.60;;;12.04;93.55;96433.34;4856604;28;20352;-65
2022/05/14 03:07:30;;;;;;;8.98;7.72;;;13.40;82.60;;;12.04;93.59;96435.97;4864974;28;20308;-66
2022/05/14 03:09:56;;;;;;;10.52;7.40;;;13.40;82.60;;;12.03;93.69;96431.72;4865079;28;20320;-65
2022/05/14 03:12:22;;;;;;;12.05;10.18;;;13.40;82.50;;;12.03;93.93;96439.63;4881246;28;20499;-66
2022/05/14 03:14:49;;;;;;;14.18;12.73;;;13.40;82.60;;;12.02;94.00;96442.44;4846896;28;20715;-66
2022/05/14 03:17:15;;;;;;;20.33;15.95;;;13.30;82.90;;;12.01;94.07;96438.19;4836866;28;20356;-66
2022/05/14 03:19:41;;;;;;;13.20;11.88;;;13.40;83.00;;;12.00;94.54;96447.91;4852912;28;20536;-66
2022/05/14 03:22:08;;;;;;;15.00;12.40;;;13.40;82.70;;;11.99;94.55;96450.72;4852187;28;20361;-67
2022/05/14 03:24:36;;;;;;;16.75;14.88;;;13.30;82.90;;;11.97;94.31;96453.53;4873336;28;20361;-67
2022/05/14 03:27:03;;;;;;;13.98;12.35;;;13.30;82.80;;;11.98;94.01;96451.72;4849409;28;20465;-68
2022/05/14 03:29:29;;;;;;;9.73;8.73;;;13.40;82.70;;;11.99;94.41;96456.78;4844738;28;20319;-67
2022/05/14 03:31:57;;;;;;;10.98;7.93;;;13.40;82.60;;;12.00;94.22;96453.19;4869165;28;20357;-66
2022/05/14 03:34:24;;;;;;;11.07;7.85;;;13.40;82.60;;;12.01;94.47;96454.81;4889221;28;20767;-68
2022/05/14 03:36:50;;;;;;;15.30;13.68;;;13.50;82.60;;;12.03;94.30;96452.81;4852858;28;20344;-67
2022/05/14 03:39:17;;;;;;;45.70;37.72;;;13.50;82.60;;;12.04;94.40;96459.69;4856783;28;20357;-66
2022/05/14 03:41:43;;;;;;;57.45;51.30;;;13.50;82.70;;;12.07;94.98;96448.78;4865698;28;20869;-67
2022/05/14 03:44:09;;;;;;;19.83;15.73;;;13.60;82.70;;;12.12;95.07;96466.66;4882142;28;20509;-66
2022/05/14 03:46:35;;;;;;;10.30;9.30;;;13.60;82.70;;;12.13;94.87;96463.84;4885376;28;20313;-67
2022/05/14 03:49:01;;;;;;;12.07;9.82;;;13.60;82.40;;;12.17;94.83;96465.06;4866440;28;20558;-67
2022/05/14 03:51:28;;;;;;;18.60;14.23;;;13.60;82.10;;;12.18;94.20;96471.16;4871715;28;20506;-66
2022/05/14 03:53:54;;;;;;;16.92;13.98;;;13.60;82.00;;;12.19;94.36;96472.78;4863765;28;20286;-66
2022/05/14 03:56:20;;;;;;;13.07;10.20;;;13.60;82.10;;;12.22;94.41;96473.25;4866999;28;20553;-67
2022/05/14 03:58:47;;;;;;;10.20;9.13;;;13.70;82.10;;;12.23;94.25;96472.25;4869921;28;20370;-67
2022/05/14 04:01:13;;;;;;;15.27;11.73;;;13.70;82.30;;;12.23;93.85;96464.34;4862518;28;20369;-66
2022/05/14 04:03:39;;;;;;;11.07;9.20;;;13.70;82.10;;;12.27;94.56;96462.94;4871056;28;20326;-67
2022/05/14 04:06:05;;;;;;;8.15;7.05;;;13.70;82.00;;;12.28;94.08;96466.41;4836125;28;20353;-67
2022/05/14 04:08:31;;;;;;;9.23;7.40;;;13.70;82.00;;;12.31;94.64;96466.00;4868254;28;20322;-67
2022/05/14 04:10:57;;;;;;;11.68;7.32;;;13.80;82.20;;;12.34;94.59;96459.53;4856195;28;20370;-67
2022/05/14 04:13:24;;;;;;;10.77;6.97;;;13.90;82.40;;;12.35;94.77;96461.16;4871325;28;20572;-67
2022/05/14 04:15:50;;;;;;;10.80;7.15;;;13.90;82.10;;;12.38;94.80;96463.44;4870957;28;20716;-67
2022/05/14 04:18:20;;;;;;;9.80;8.50;;;13.90;82.00;;;12.39;95.49;96468.50;4850787;28;20374;-67
2022/05/14 04:20:46;;;;;;;22.88;16.83;;;13.90;82.00;;;12.38;94.19;96466.06;4851009;28;20569;-67
2022/05/14 04:23:13;;;;;;;10.00;8.98;;;13.90;81.90;;;12.39;94.53;96467.69;4853544;28;20412;-69
2022/05/14 04:25:39;;;;;;;8.75;6.70;;;13.90;81.60;;;12.38;94.07;96463.44;4870804;28;20275;-69
2022/05/14 04:28:05;;;;;;;8.18;6.22;;;13.90;81.50;;;12.39;94.73;96467.69;4870948;28;20311;-68
2022/05/14 04:30:31;;;;;;;6.45;5.65;;;13.90;81.40;;;12.41;93.84;96466.50;4850834;28;20496;-68
2022/05/14 04:32:57;;;;;;;6.72;6.00;;;14.00;81.30;;;12.43;93.49;96463.66;4885265;28;20825;-67
2022/05/14 04:35:23;;;;;;;8.93;6.22;;;14.10;81.20;;;12.46;93.76;96474.66;4971784;28;20026;-66
2022/05/14 04:37:48;;;;;;;9.82;6.55;;;14.10;81.40;;;12.51;94.15;96474.09;4988230;28;20129;-68
2022/05/14 04:40:14;;;;;;;7.65;6.30;;;14.10;81.40;;;12.57;94.39;96473.31;4987487;28;20112;-67
2022/05/14 04:42:40;;;;;;;7.38;6.55;;;14.10;81.50;;;12.58;94.09;96469.66;4970834;28;20043;-67
2022/05/14 04:45:08;;;;;;;10.98;9.40;;;14.20;81.30;;;12.66;94.08;96480.06;4971156;28;20123;-67
2022/05/14 04:47:34;;;;;;;9.23;7.45;;;14.30;81.30;;;12.73;93.77;96480.13;4971855;28;20040;-67
2022/05/14 04:50:00;;;;;;;7.60;6.88;;;14.40;81.00;;;12.79;94.42;96484.63;4971253;28;20038;-67
2022/05/14 04:52:26;;;;;;;9.52;6.38;;;14.50;80.80;;;12.83;93.51;96481.41;5003562;28;20036;-66
2022/05/14 04:54:52;;;;;;;7.72;7.00;;;14.60;80.70;;;12.91;93.46;96482.28;4970454;28;20049;-67
2022/05/14 04:57:17;;;;;;;7.70;6.80;;;14.60;80.70;;;12.95;94.17;96481.69;4972316;28;20121;-66
2022/05/14 04:59:43;;;;;;;10.38;6.55;;;14.60;80.20;;;13.00;93.63;96481.13;4955877;28;20133;-69
2022/05/14 05:04:54;;;;;;;8.50;6.78;;;14.70;79.50;;;13.09;93.43;96485.22;4971999;28;20053;-69
2022/05/14 05:07:20;;;;;;;9.30;7.20;;;14.80;79.90;;;13.15;93.65;96481.81;4972316;28;20040;-69
2022/05/14 05:09:46;;;;;;;6.90;6.18;;;14.90;79.80;;;13.21;93.24;96483.69;4987883;28;20402;-68
2022/05/14 05:12:11;;;;;;;7.68;6.60;;;15.00;80.10;;;13.28;93.78;96495.09;4970298;28;20038;-68
2022/05/14 05:14:37;;;;;;;9.57;6.25;;;15.10;80.00;;;13.32;93.29;96485.78;4971052;28;20096;-69
2022/05/14 05:17:04;;;;;;;7.55;6.78;;;15.10;79.10;;;13.40;92.94;96487.44;4987822;28;20042;-68
2022/05/14 05:19:30;;;;;;;10.93;7.15;;;15.20;78.80;;;13.47;92.29;96486.44;4956103;28;20042;-69
2022/05/14 05:21:56;;;;;;;8.90;6.40;;;15.30;78.70;;;13.56;92.34;96480.97;4985746;28;20046;-68
2022/05/14 05:24:22;;;;;;;7.03;6.30;;;15.40;78.80;;;13.62;92.90;96483.66;4970081;28;20099;-68
2022/05/14 05:26:48;;;;;;;9.98;6.30;;;15.50;78.60;;;13.70;92.04;96487.97;4971259;28;20570;-69
2022/05/14 05:29:14;;;;;;;8.52;6.85;;;15.60;78.10;;;13.78;91.66;96488.59;4955450;28;20568;-69
2022/05/14 05:31:39;;;;;;;8.75;6.18;;;15.70;77.30;;;13.88;90.00;96487.41;4986435;28;20528;-69
2022/05/14 05:34:05;;;;;;;8.13;5.93;;;15.90;75.70;;;13.97;89.71;96488.84;4987330;28;20886;-68
2022/05/14 05:36:31;;;;;;;6.85;5.45;;;16.10;75.00;;;14.05;88.78;96494.78;4985925;28;20045;-69
2022/05/14 05:38:58;;;;;;;8.35;5.65;;;16.10;74.70;;;14.18;88.89;96501.91;4955243;28;20049;-68
2022/05/14 05:41:23;;;;;;;8.90;5.38;;;16.30;74.50;;;14.28;87.65;96501.53;4938911;28;20041;-68
2022/05/14 05:43:49;;;;;;;6.07;5.05;;;16.40;74.00;;;14.40;87.68;96497.25;4971679;28;20528;-68
2022/05/14 05:46:15;;;;;;;7.55;5.28;;;16.50;73.70;;;14.50;86.96;96495.06;4986696;28;20034;-69
2022/05/14 05:48:42;;;;;;;7.38;5.10;;;16.70;72.00;;;14.62;85.78;96498.69;4955235;28;20036;-69
2022/05/14 05:51:08;;;;;;;5.60;4.30;;;16.80;72.00;;;14.73;84.96;96496.47;4938503;28;20032;-67
2022/05/14 05:56:47;;;;;;;8.40;4.82;;;17.10;68.70;;;14.96;82.21;96499.50;4947746;28;20034;-67
2022/05/14 05:59:14;;;;;;;;;;;17.20;69.40;;;15.06;81.75;96489.28;4985917;28;20042;-67
2022/05/14 06:01:40;;;;;;;6.75;4.68;;;17.30;69.90;;;15.13;83.06;96487.41;4962831;28;20404;-67
2022/05/14 06:04:06;;;;;;;7.97;5.20;;;17.60;69.60;;;15.31;82.95;96498.16;4964041;28;20081;-67
2022/05/14 06:06:32;;;;;;;7.47;4.93;;;17.70;69.00;;;15.47;83.09;96502.22;4957717;28;20037;-67
2022/05/14 06:08:58;;;;;;;9.60;4.75;;;18.00;69.30;;;15.63;83.07;96500.97;4970631;28;20779;-66
2022/05/14 06:11:25;;;;;;;5.30;4.50;;;18.10;69.00;;;15.76;81.89;96506.19;4953745;28;20435;-67
2022/05/14 06:13:51;;;;;;;8.80;4.97;;;18.30;67.00;;;15.88;81.72;96504.50;4987066;28;20046;-68
2022/05/14 06:16:17;;;;;;;6.75;4.95;;;18.50;66.50;;;16.05;81.45;96504.00;4969695;28;20493;-68
2022/05/14 06:18:43;;;;;;;6.65;4.88;;;18.70;67.20;;;16.20;80.84;96507.19;4986857;28;20511;-68
2022/05/14 06:21:09;;;;;;;7.13;4.30;;;19.00;66.50;;;16.36;79.73;96509.31;4969858;28;20068;-65
2022/05/14 06:23:35;;;;;;;7.57;4.85;;;19.20;63.20;;;16.48;78.89;96499.63;4967114;28;20042;-66
2022/05/14 06:26:01;;;;;;;6.68;4.70;;;19.30;62.80;;;16.62;78.70;96496.88;4935140;28;20031;-66
2022/05/14 06:28:27;;;;;;;7.30;4.43;;;19.50;63.90;;;16.80;78.47;96507.59;4934740;28;20085;-66
2022/05/14 06:30:52;;;;;;;8.88;4.28;;;19.70;63.10;;;16.99;77.98;96506.59;4940416;28;20520;-66
2022/05/14 06:33:18;;;;;;;7.55;4.53;;;19.90;61.70;;;17.19;76.97;96492.25;4953908;28;20140;-67
2022/05/14 06:35:44;;;;;;;5.43;3.83;;;20.30;61.10;;;17.40;76.64;96499.81;4934213;28;20046;-68
2022/05/14 06:38:10;;;;;;;5.22;3.35;;;20.60;59.70;;;17.63;72.86;96505.25;5001600;28;20429;-66
2022/05/14 06:40:36;;;;;;;4.55;3.38;;;20.80;54.50;;;17.86;72.39;96501.13;4982758;28;20141;-68
2022/05/14 06:43:03;;;;;;;7.10;3.63;;;21.10;55.00;;;18.10;70.73;96502.03;4978189;28;20861;-67
2022/05/14 06:45:29;;;;;;;5.30;3.70;;;21.40;53.80;;;18.30;70.28;96503.38;4985304;28;20056;-68
2022/05/14 06:47:55;;;;;;;5.88;4.20;;;21.60;53.20;;;18.46;70.63;96506.44;4967927;28;20054;-68
2022/05/14 06:50:21;;;;;;;5.97;3.58;;;21.80;55.20;;;18.65;70.19;96506.16;4959509;28;20061;-66
2022/05/14 06:52:49;;;;;;;8.07;3.88;;;22.00;53.50;;;18.84;68.88;96506.88;4887540;28;20788;-70
2022/05/14 06:55:18;;;;;;;5.20;3.40;;;22.30;52.10;;;19.04;65.61;96503.06;4857713;28;20395;-70
2022/05/14 06:57:44;;;;;;;5.30;3.03;;;22.40;49.60;;;19.18;64.70;96502.56;4852751;28;20735;-71
2022/05/14 07:00:11;;;;;;;8.38;3.03;;;22.50;49.00;;;19.34;63.65;96497.59;4863361;28;20430;-70
2022/05/14 07:02:37;;;;;;;7.57;3.50;;;22.70;47.90;;;19.51;63.08;96503.81;4865565;28;20316;-70
2022/05/14 07:07:48;;;;;;;9.05;6.13;;;23.10;46.30;;;19.80;61.73;96502.03;4879055;28;20215;-69
2022/05/14 07:10:14;;;;;;;8.88;5.07;;;23.20;46.00;;;19.94;61.83;96497.25;4896417;28;20461;-68
2022/05/14 07:12:40;;;;;;;5.45;3.30;;;23.40;46.70;;;20.10;62.38;96502.59;4867942;28;20353;-69
2022/05/14 07:15:07;;;;;;;4.43;2.50;;;23.60;47.50;;;20.26;60.85;96506.38;4868227;28;20260;-69
2022/05/14 07:17:33;;;;;;;4.97;2.60;;;23.60;44.80;;;20.42;60.11;96505.63;4852404;28;20463;-69
2022/05/14 07:19:59;;;;;;;5.05;2.67;;;23.90;45.50;;;20.61;59.14;96503.53;4871639;28;20825;-69
2022/05/14 07:22:25;;;;;;;2.97;2.05;;;24.20;44.70;;;20.75;58.29;96504.81;4835544;28;20883;-70
2022/05/14 07:24:51;;;;;;;6.82;2.58;;;24.20;43.90;;;20.93;58.68;96500.28;4852042;28;20284;-68
2022/05/14 07:27:18;;;;;;;8.07;2.60;;;24.50;44.60;;;21.12;56.84;96485.59;4871766;28;20552;-68
2022/05/14 07:29:45;;;;;;;9.32;2.60;;;24.60;42.20;;;21.33;56.59;96492.88;4833347;28;20328;-70
2022/05/14 07:32:16;;;;;;;7.78;3.05;;;24.60;42.10;;;21.56;52.22;96488.34;4856455;28;20506;-68
2022/05/14 07:34:42;;;;;;;5.45;2.58;;;24.70;40.50;;;21.73;54.30;96493.63;4841246;28;20370;-69
2022/05/14 07:37:31;;;;;;;8.60;3.90;;;24.60;41.60;;;21.88;51.24;96491.94;4868958;28;20509;-68
2022/05/14 07:40:08;;;;;;;4.78;2.38;;;24.60;42.60;;;21.97;51.22;96487.78;4891854;28;20364;-68
2022/05/14 07:42:46;;;;;;;5.25;2.53;;;24.60;42.40;;;22.04;49.10;96489.44;4883597;28;20137;-68
2022/05/14 07:45:19;;;;;;;5.55;2.40;;;24.60;40.20;;;22.12;49.68;96489.03;4895972;28;20104;-66
2022/05/14 07:47:45;;;;;;;6.75;2.80;;;25.00;41.20;;;22.16;51.25;96487.44;4889764;28;20318;-64
2022/05/14 07:50:10;;;;;;;5.57;3.45;;;25.00;40.10;;;22.21;51.88;96492.88;4901565;28;20500;-66
2022/05/14 07:52:36;;;;;;;8.00;2.40;;;24.90;41.50;;;22.20;51.72;96488.59;4915581;28;20038;-65
2022/05/14 07:55:04;;;;;;;5.90;2.08;;;24.90;42.30;;;22.37;52.77;96483.91;4925305;28;20038;-67
2022/05/14 07:57:30;;;;;;;3.70;1.70;;;25.10;44.50;;;22.44;49.52;96484.53;4903853;28;20642;-64
2022/05/14 07:59:56;;;;;;;7.43;1.83;;;25.00;37.90;;;22.43;48.11;96485.59;4907972;28;20050;-68
2022/05/14 08:02:31;;;;;;;5.72;1.30;;;24.80;37.30;;;22.37;43.73;96478.53;4881217;28;20304;-65
2022/05/14 08:04:58;;;;;;;4.18;1.15;;;24.70;35.70;;;22.36;44.70;96486.84;4901168;28;20034;-65
2022/05/14 08:07:24;;;;;;;9.68;5.00;;;24.60;34.00;;;22.28;44.90;96482.75;4926847;28;20034;-61
2022/05/14 08:09:50;;;;;;;6.03;2.53;;;24.10;42.70;;;22.33;45.35;96482.00;4925116;28;20392;-63
2022/05/14 08:12:16;;;;;;;3.90;1.65;;;24.30;38.30;;;22.34;44.39;96488.97;4942904;28;20501;-64
2022/05/14 08:14:41;;;;;;;14.07;3.22;;;24.40;37.20;;;22.37;45.65;96486.59;4946103;28;20348;-64
2022/05/14 08:17:09;;;;;;;10.27;2.55;;;24.70;38.90;;;22.40;45.63;96485.25;4941237;28;20046;-66
2022/05/14 08:19:35;;;;;;;4.95;1.50;;;24.80;38.40;;;22.42;46.32;96483.97;4900847;28;20669;-64
2022/05/14 08:24:46;;;;;;;5.07;1.42;;;25.10;38.20;;;22.48;44.52;96484.81;4929924;28;20103;-69
2022/05/14 08:27:12;;;;;;;5.28;1.52;;;25.20;34.80;;;22.54;44.96;96489.16;4901213;28;20034;-66
2022/05/14 08:29:38;;;;;;;4.53;2.20;;;25.30;36.10;;;22.65;44.64;96485.50;4923897;28;20388;-66
2022/05/14 08:32:04;;;;;;;5.32;1.65;;;25.60;36.90;;;22.78;44.93;96484.25;4927152;28;20065;-65
2022/05/14 08:34:30;;;;;;;8.38;2.50;;;25.70;37.00;;;22.94;45.66;96483.34;4941608;28;20045;-64
2022/05/14 08:36:56;;;;;;;3.85;1.70;;;26.00;38.60;;;23.09;45.41;96482.66;4926209;28;20077;-62
2022/05/14 08:39:22;;;;;;;9.55;3.45;;;26.20;37.60;;;23.25;44.88;96483.53;4915190;28;20565;-61
2022/05/14 08:41:50;;;;;;;14.05;5.28;;;26.40;37.00;;;23.36;44.81;96479.84;4929722;28;20580;-63
2022/05/14 08:44:21;;;;;;;7.75;3.00;;;26.50;36.10;;;23.53;44.11;96472.38;4922194;28;20034;-63
2022/05/14 08:46:55;;;;;;;5.45;2.40;;;26.70;36.50;;;23.76;43.90;96471.16;4909651;28;20303;-66
2022/05/14 08:49:51;;;;;;;4.13;1.88;;;27.10;36.40;;;23.96;40.02;96471.25;4875173;28;20360;-67
2022/05/14 08:52:25;;;;;;;8.07;1.90;;;27.20;31.30;;;24.05;39.23;96479.63;4865902;28;20702;-63
2022/05/14 08:54:58;;;;;;;5.13;2.83;;;27.20;31.60;;;24.11;40.16;96467.78;4897397;28;20862;-65
2022/05/14 08:57:34;;;;;;;5.03;2.83;;;27.40;31.80;;;24.33;37.29;96468.41;4878314;28;20561;-66
2022/05/14 09:00:01;;;;;;;2.15;1.10;;;27.80;30.10;;;24.43;39.33;96462.22;4871693;28;20205;-66
2022/05/14 09:02:32;;;;;;;16.45;4.07;;;27.70;29.40;;;24.62;38.30;96466.00;4836769;28;20373;-67
2022/05/14 09:05:21;;;;;;;27.08;11.05;;;28.20;31.20;;;24.84;37.72;96463.03;4840172;28;20716;-66
2022/05/14 09:07:48;;;;;;;17.02;6.13;;;28.40;31.30;;;25.08;40.13;96457.09;4885303;28;20260;-62
2022/05/14 09:10:54;;;;;;;7.65;1.58;;;28.70;31.10;;;25.44;35.90;96453.25;4892622;28;20440;-65
2022/05/14 09:13:22;;;;;;;3.95;2.00;;;29.10;28.60;;;25.63;38.17;96459.63;4865824;28;20317;-65
2022/05/14 09:15:59;;;;;;;5.07;1.88;;;29.10;28.20;;;25.81;35.78;96460.13;4819109;28;20373;-64
2022/05/14 09:18:24;;;;;;;5.00;1.70;;;29.40;28.50;;;25.99;38.51;96455.97;4859572;28;20623;-63
2022/05/14 09:21:05;;;;;;;8.40;3.47;;;29.60;29.80;;;26.09;35.90;96451.34;4885847;28;20561;-65
2022/05/14 09:23:41;;;;;;;4.82;1.85;;;29.60;28.30;;;26.26;35.73;96456.38;4870957;28;20450;-63
2022/05/14 09:26:34;;;;;;;12.23;5.07;;;29.90;28.80;;;26.48;36.19;96458.66;4882684;28;20361;-64
2022/05/14 09:29:15;;;;;;;6.18;2.53;;;30.40;29.80;;;26.69;34.63;96453.91;4837100;28;20485;-63
2022/05/14 09:32:03;;;;;;;3.40;1.50;;;30.60;27.60;;;26.99;36.10;96458.25;4868255;28;20255;-64
2022/05/14 09:34:31;;;;;;;4.90;1.70;;;31.00;29.10;;;27.19;36.89;96463.47;4866701;28;20591;-64
2022/05/14 09:37:26;;;;;;;3.38;1.42;;;31.10;27.00;;;27.37;33.79;96451.09;4846542;28;20372;-65
2022/05/14 09:39:57;;;;;;;2.45;1.05;;;31.10;26.30;;;27.45;34.34;96451.31;4895403;28;20563;-64
2022/05/14 09:42:35;;;;;;;3.35;1.10;;;31.30;26.90;;;27.53;34.82;96457.16;4883797;28;20357;-64
2022/05/14 09:45:01;;;;;;;3.60;1.95;;;31.40;26.70;;;27.68;35.54;96454.31;4843262;28;20323;-66
2022/05/14 09:47:31;;;;;;;5.50;1.75;;;31.50;27.80;;;27.79;33.59;96444.16;4856582;28;20346;-64
2022/05/14 09:50:00;;;;;;;7.30;4.78;;;31.50;25.80;;;27.89;33.79;96444.84;4869073;28;20856;-65
2022/05/14 09:52:29;;;;;;;3.30;1.15;;;32.00;25.00;;;27.99;32.86;96443.88;4837618;28;20344;-63
2022/05/14 09:54:55;;;;;;;8.90;3.58;;;32.00;24.70;;;28.14;33.41;96445.59;4872335;28;20812;-64
2022/05/14 09:57:55;;;;;;;7.22;1.95;;;32.50;25.00;;;28.39;31.70;96441.72;4868310;28;20267;-65
2022/05/14 10:00:38;;;;;;;6.53;1.27;;;32.90;24.90;;;28.66;34.46;96442.63;4881217;28;20467;-64
2022/05/14 10:03:45;;;;;;;4.70;1.58;;;33.50;24.80;;;28.98;31.62;96429.41;4873744;28;20349;-64
2022/05/14 10:06:23;;;;;;;4.47;1.60;;;33.70;24.30;;;29.24;30.07;96442.19;4877929;28;20575;-66
2022/05/14 10:09:17;;;;;;;4.50;1.40;;;33.50;22.60;;;29.52;30.04;96431.38;4870127;28;20208;-65
2022/05/14 10:12:31;;;;;;;2.97;1.27;;;33.90;22.90;;;29.76;29.74;96434.66;4874242;28;20569;-65
2022/05/14 10:15:18;;;;;;;6.47;1.60;;;34.10;22.40;;;30.00;29.36;96436.34;4859134;28;20553;-65
2022/05/14 10:18:02;;;;;;;4.88;1.75;;;34.40;22.60;;;30.32;29.04;96430.72;4886847;28;20558;-65
2022/05/14 10:21:02;;;;;;;5.03;1.40;;;35.20;22.00;;;30.63;28.76;96425.41;4880360;28;20407;-65
2022/05/14 10:27:05;;;;;;;3.58;1.63;;;35.80;22.70;;;31.51;29.48;96425.56;4904839;28;20221;-68
2022/05/14 10:29:44;;;;;;;6.60;1.52;;;36.30;21.90;;;31.96;28.97;96418.00;4898747;28;20255;-65
2022/05/14 10:32:15;;;;;;;;;;;37.10;21.30;;;32.41;28.76;96414.22;4870313;28;20358;-68
2022/05/14 10:35:19;;;;;;;3.75;2.17;;;37.60;20.90;;;32.80;27.67;96416.75;4844710;28;20236;-68
2022/05/14 10:38:02;;;;;;;4.05;1.40;;;37.60;19.80;;;33.12;27.06;96400.94;4875735;28;20224;-68
2022/05/14 10:40:38;;;;;;;3.58;1.35;;;38.10;20.20;;;33.46;27.53;96400.00;4848153;28;20560;-64
2022/05/14 10:43:33;;;;;;;6.68;1.73;;;38.50;20.50;;;33.82;26.43;96402.22;4888907;28;20319;-66
2022/05/14 10:45:59;;;;;;;6.22;1.75;;;38.50;20.30;;;34.07;28.77;96398.53;4870430;28;20541;-68
2022/05/14 10:49:13;;;;;;;6.78;2.03;;;38.50;20.40;;;34.40;25.86;96397.81;4831891;28;20340;-65